createdAt,value
2017-07-29T00:02:13.886Z,6.53
2017-07-29T00:04:52.890Z,7.37
2017-07-29T00:07:43.626Z,7.30
2017-07-29T00:10:11.665Z,8.27
2017-07-29T00:15:53.794Z,10.50
2017-07-29T00:18:30.150Z,7.83
2017-07-29T00:21:23.943Z,12.33
2017-07-29T00:23:53.902Z,11.50
2017-07-29T00:26:27.958Z,6.83
2017-07-29T00:29:09.326Z,8.90
2017-07-29T00:31:48.062Z,9.27
2017-07-29T00:34:26.734Z,7.00
2017-07-29T00:36:56.711Z,16.77
2017-07-29T00:39:30.365Z,12.10
2017-07-29T00:41:59.342Z,6.97
2017-07-29T00:44:48.721Z,8.53
2017-07-29T00:47:26.342Z,7.30
2017-07-29T00:50:03.205Z,8.83
2017-07-29T00:52:31.261Z,9.27
2017-07-29T00:55:11.293Z,7.07
2017-07-29T00:57:44.181Z,8.90
2017-07-29T01:00:12.258Z,6.57
2017-07-29T01:02:47.107Z,7.73
2017-07-29T01:05:23.650Z,7.60
2017-07-29T01:08:10.965Z,8.27
2017-07-29T01:10:39.788Z,11.03
2017-07-29T01:13:11.813Z,8.80
2017-07-29T01:15:40.865Z,8.03
2017-07-29T01:18:18.985Z,9.60
2017-07-29T01:20:52.655Z,6.10
2017-07-29T01:26:31.332Z,8.93
2017-07-29T01:29:05.277Z,8.67
2017-07-29T01:31:37.049Z,6.30
2017-07-29T01:34:09.600Z,5.50
2017-07-29T01:36:43.265Z,9.17
2017-07-29T01:39:12.948Z,6.40
2017-07-29T01:41:44.717Z,7.07
2017-07-29T01:44:29.833Z,5.50
2017-07-29T01:50:02.313Z,6.37
2017-07-29T01:52:34.316Z,9.30
2017-07-29T01:55:05.840Z,5.10
2017-07-29T01:57:46.748Z,13.30
2017-07-29T02:00:14.784Z,7.43
2017-07-29T02:02:43.580Z,8.03
2017-07-29T02:05:25.765Z,10.63
2017-07-29T02:07:58.985Z,9.40
2017-07-29T02:10:46.764Z,7.17
2017-07-29T02:13:14.800Z,7.67
2017-07-29T02:15:48.376Z,7.73
2017-07-29T02:18:38.284Z,7.00
2017-07-29T02:21:27.380Z,9.10
2017-07-29T02:23:59.084Z,13.63
2017-07-29T02:26:37.608Z,8.10
2017-07-29T02:32:08.369Z,10.50
2017-07-29T02:34:42.405Z,11.27
2017-07-29T02:37:15.409Z,7.87
2017-07-29T02:39:47.213Z,6.97
2017-07-29T02:42:20.936Z,8.23
2017-07-29T02:45:03.980Z,7.07
2017-07-29T02:47:41.865Z,12.03
2017-07-29T02:50:09.924Z,12.10
2017-07-29T02:52:38.004Z,9.93
2017-07-29T03:01:00.172Z,7.67
2017-07-29T03:03:28.230Z,8.10
2017-07-29T03:06:10.376Z,9.13
2017-07-29T03:08:58.552Z,10.00
2017-07-29T03:11:38.595Z,11.50
2017-07-29T03:14:07.624Z,10.37
2017-07-29T03:16:37.644Z,12.20
2017-07-29T03:19:10.200Z,7.63
2017-07-29T03:24:53.403Z,11.00
2017-07-29T03:27:27.331Z,9.47
2017-07-29T03:29:55.551Z,7.83
2017-07-29T03:32:33.384Z,6.93
2017-07-29T03:35:21.415Z,11.23
2017-07-29T03:37:49.532Z,9.43
2017-07-29T03:43:16.496Z,10.53
2017-07-29T03:48:56.083Z,10.77
2017-07-29T03:57:35.916Z,10.13
2017-07-29T04:26:52.395Z,8.20
2017-07-29T04:32:16.823Z,10.70
2017-07-29T04:34:52.635Z,10.40
2017-07-29T04:46:07.695Z,7.70
2017-07-29T04:48:56.416Z,8.00
2017-07-29T04:57:31.567Z,7.80
2017-07-29T05:03:02.608Z,9.03
2017-07-29T05:05:49.355Z,8.70
2017-07-29T05:08:24.387Z,10.00
2017-07-29T05:11:16.312Z,8.20
2017-07-29T05:13:54.671Z,7.03
2017-07-29T05:16:31.642Z,6.13
2017-07-29T05:21:56.847Z,9.33
2017-07-29T05:24:27.495Z,7.13
2017-07-29T05:27:15.709Z,8.13
2017-07-29T05:29:55.659Z,9.30
2017-07-29T05:32:41.038Z,10.30
2017-07-29T05:35:12.387Z,9.40
2017-07-29T05:37:44.991Z,8.47
2017-07-29T05:40:29.927Z,7.83
2017-07-29T05:43:03.030Z,8.57
2017-07-29T05:45:36.738Z,9.63
2017-07-29T05:48:08.210Z,8.20
2017-07-29T05:50:58.814Z,7.97
2017-07-29T05:53:27.622Z,9.10
2017-07-29T05:55:55.646Z,8.93
2017-07-29T06:01:42.298Z,6.73
2017-07-29T06:04:13.042Z,6.87
2017-07-29T06:06:53.750Z,6.30
2017-07-29T06:09:36.026Z,7.27
2017-07-29T06:18:12.122Z,8.30
2017-07-29T06:20:46.665Z,7.53
2017-07-29T06:41:11.714Z,7.03
2017-07-29T07:07:02.301Z,5.90
2017-07-29T07:26:59.765Z,6.07
2017-07-29T07:29:48.041Z,7.40
2017-07-29T07:49:49.488Z,7.90
2017-07-29T07:58:25.701Z,4.33
2017-07-29T08:00:57.185Z,4.70
2017-07-29T08:20:47.601Z,5.27
2017-07-29T08:35:14.228Z,4.70
2017-07-29T08:55:17.212Z,6.43
2017-07-29T09:29:47.628Z,2.70
2017-07-29T09:49:39.204Z,4.20
2017-07-29T10:00:47.483Z,4.53
2017-07-29T10:03:15.507Z,3.50
2017-07-29T10:05:45.243Z,4.37
2017-07-29T10:08:14.044Z,3.67
2017-07-29T10:10:42.076Z,3.37
2017-07-29T10:13:10.091Z,4.80
2017-07-29T10:15:38.916Z,4.97
2017-07-29T10:18:07.923Z,3.33
2017-07-29T10:20:35.940Z,4.10
2017-07-29T10:23:04.893Z,4.93
2017-07-29T10:25:33.855Z,4.10
2017-07-29T10:28:03.799Z,7.17
2017-07-29T10:30:31.820Z,4.13
2017-07-29T10:32:59.851Z,5.03
2017-07-29T10:35:29.843Z,6.97
2017-07-29T10:37:57.863Z,4.77
2017-07-29T10:40:25.899Z,4.30
2017-07-29T10:42:54.887Z,7.80
2017-07-29T10:45:22.907Z,3.47
2017-07-29T10:47:50.935Z,3.77
2017-07-29T10:50:19.724Z,5.90
2017-07-29T10:52:49.539Z,9.20
2017-07-29T10:55:18.349Z,4.83
2017-07-29T10:57:46.371Z,5.17
2017-07-29T11:00:14.408Z,4.70
2017-07-29T11:02:42.443Z,4.13
2017-07-29T11:05:11.231Z,3.00
2017-07-29T11:07:40.212Z,5.17
2017-07-29T11:10:09.907Z,3.80
2017-07-29T11:12:38.903Z,4.80
2017-07-29T11:15:06.934Z,9.47
2017-07-29T11:17:36.003Z,6.37
2017-07-29T11:20:03.987Z,5.20
2017-07-29T11:22:32.006Z,5.23
2017-07-29T11:25:00.039Z,10.60
2017-07-29T11:27:29.978Z,4.20
2017-07-29T11:29:58.003Z,4.60
2017-07-29T11:32:27.984Z,4.93
2017-07-29T11:34:56.947Z,6.80
2017-07-29T11:37:24.959Z,5.20
2017-07-29T11:39:53.751Z,4.23
2017-07-29T11:42:21.763Z,4.37
2017-07-29T11:44:49.779Z,4.60
2017-07-29T11:47:18.738Z,3.77
2017-07-29T11:49:46.983Z,4.20
2017-07-29T11:52:14.998Z,4.40
2017-07-29T11:54:43.047Z,2.90
2017-07-29T11:57:11.075Z,4.50
2017-07-29T11:59:39.081Z,4.80
2017-07-29T12:02:07.116Z,5.40
2017-07-29T12:04:37.075Z,7.17
2017-07-29T12:07:06.082Z,3.20
2017-07-29T12:09:34.103Z,3.27
2017-07-29T12:12:02.133Z,3.83
2017-07-29T12:14:30.139Z,3.50
2017-07-29T12:16:59.098Z,4.37
2017-07-29T12:19:28.883Z,3.73
2017-07-29T12:21:56.898Z,4.97
2017-07-29T12:24:24.934Z,3.20
2017-07-29T12:26:53.928Z,2.97
2017-07-29T12:29:22.914Z,3.60
2017-07-29T12:31:50.950Z,3.30
2017-07-29T12:34:18.970Z,5.30
2017-07-29T12:36:47.938Z,3.23
2017-07-29T12:39:15.962Z,6.43
2017-07-29T12:41:43.985Z,4.10
2017-07-29T12:44:12.035Z,4.40
2017-07-29T12:46:41.054Z,2.60
2017-07-29T12:49:09.070Z,3.10
2017-07-29T12:51:38.008Z,3.80
2017-07-29T12:54:06.026Z,7.57
2017-07-29T12:56:34.043Z,2.40
2017-07-29T12:59:02.058Z,5.40
2017-07-29T13:01:30.082Z,3.93
2017-07-29T13:03:58.126Z,3.37
2017-07-29T13:06:26.398Z,3.30
2017-07-29T13:08:54.422Z,3.57
2017-07-29T13:11:26.658Z,2.90
2017-07-29T13:13:54.682Z,2.80
2017-07-29T13:16:22.693Z,3.30
2017-07-29T13:18:50.702Z,4.90
2017-07-29T13:21:18.794Z,5.30
2017-07-29T13:23:47.558Z,6.87
2017-07-29T13:26:17.345Z,3.77
2017-07-29T13:28:46.362Z,2.80
2017-07-29T13:31:15.137Z,3.77
2017-07-29T13:33:43.150Z,4.10
2017-07-29T13:36:11.170Z,3.07
2017-07-29T13:38:39.194Z,4.00
2017-07-29T13:41:08.125Z,5.93
2017-07-29T13:43:36.150Z,7.90
2017-07-29T13:46:04.170Z,3.73
2017-07-29T13:48:32.201Z,3.40
2017-07-29T13:51:00.235Z,2.77
2017-07-29T13:53:29.038Z,8.63
2017-07-29T13:55:57.054Z,2.83
2017-07-29T13:58:25.077Z,6.70
2017-07-29T14:00:53.094Z,4.10
2017-07-29T14:03:21.106Z,3.77
2017-07-29T14:05:50.909Z,4.27
2017-07-29T14:08:18.922Z,3.13
2017-07-29T14:10:46.941Z,2.77
2017-07-29T14:13:15.093Z,5.43
2017-07-29T14:15:44.121Z,3.20
2017-07-29T14:18:15.970Z,4.17
2017-07-29T14:20:44.002Z,6.57
2017-07-29T14:23:13.121Z,2.63
2017-07-29T14:25:43.854Z,4.30
2017-07-29T14:28:11.954Z,7.23
2017-07-29T14:30:39.957Z,2.53
2017-07-29T14:33:08.009Z,3.00
2017-07-29T14:35:36.029Z,2.90
2017-07-29T14:38:05.015Z,2.90
2017-07-29T14:40:34.033Z,3.43
2017-07-29T14:43:02.054Z,3.40
2017-07-29T14:45:32.005Z,4.87
2017-07-29T14:48:00.053Z,3.77
2017-07-29T14:50:28.073Z,5.80
2017-07-29T14:52:56.105Z,2.97
2017-07-29T14:55:26.125Z,7.47
2017-07-29T14:57:54.133Z,3.63
2017-07-29T15:00:22.153Z,3.13
2017-07-29T15:02:51.170Z,2.90
2017-07-29T15:05:21.896Z,3.27
2017-07-29T15:07:49.905Z,3.77
2017-07-29T15:10:17.937Z,3.57
2017-07-29T15:12:46.921Z,3.23
2017-07-29T15:15:16.929Z,4.60
2017-07-29T15:17:44.949Z,2.97
2017-07-29T15:20:13.429Z,3.20
2017-07-29T15:22:43.193Z,3.40
2017-07-29T15:25:11.221Z,2.60
2017-07-29T15:27:39.229Z,2.53
2017-07-29T15:30:07.248Z,1.97
2017-07-29T15:32:35.369Z,2.10
2017-07-29T15:35:04.365Z,2.00
2017-07-29T15:37:32.384Z,3.30
2017-07-29T15:40:00.409Z,3.13
2017-07-29T15:42:28.425Z,3.63
2017-07-29T15:44:56.437Z,3.43
2017-07-29T15:47:24.464Z,3.10
2017-07-29T15:49:52.481Z,3.77
2017-07-29T15:52:22.498Z,5.10
2017-07-29T15:54:55.709Z,4.30
2017-07-29T15:57:23.736Z,3.27
2017-07-29T15:59:51.740Z,2.50
2017-07-29T16:02:19.766Z,2.70
2017-07-29T16:17:40.528Z,2.70
2017-07-29T16:20:08.551Z,2.60
2017-07-29T16:22:40.020Z,3.40
2017-07-29T16:25:08.040Z,3.77
2017-07-29T16:27:36.065Z,4.13
2017-07-29T16:30:04.100Z,3.83
2017-07-29T16:32:32.116Z,2.63
2017-07-29T16:35:00.904Z,3.50
2017-07-29T16:37:29.688Z,4.30
2017-07-29T16:39:58.496Z,2.17
2017-07-29T16:42:26.509Z,3.00
2017-07-29T16:44:54.544Z,3.47
2017-07-29T16:47:22.572Z,3.93
2017-07-29T16:49:50.572Z,2.30
2017-07-29T16:52:18.612Z,2.20
2017-07-29T16:54:46.636Z,3.27
2017-07-29T16:57:15.661Z,6.17
2017-07-29T16:59:45.684Z,2.50
2017-07-29T17:02:14.668Z,4.10
2017-07-29T17:04:42.691Z,4.83
2017-07-29T17:07:10.712Z,3.30
2017-07-29T17:09:38.724Z,2.77
2017-07-29T17:12:06.736Z,7.20
2017-07-29T17:14:34.783Z,3.93
2017-07-29T17:17:03.708Z,3.97
2017-07-29T17:19:32.747Z,4.20
2017-07-29T17:22:00.740Z,3.67
2017-07-29T17:24:28.756Z,2.40
2017-07-29T17:26:57.556Z,3.40
2017-07-29T17:29:27.371Z,7.17
2017-07-29T17:31:56.156Z,3.43
2017-07-29T17:34:24.936Z,2.70
2017-07-29T17:36:53.759Z,4.70
2017-07-29T17:39:21.775Z,3.23
2017-07-29T17:41:53.247Z,4.83
2017-07-29T17:44:21.279Z,3.23
2017-07-29T17:46:49.308Z,2.80
2017-07-29T17:49:18.300Z,2.83
2017-07-29T17:51:46.359Z,3.30
2017-07-29T17:54:15.159Z,12.53
2017-07-29T17:56:43.183Z,7.07
2017-07-29T17:59:12.103Z,7.20
2017-07-29T18:01:41.063Z,2.77
2017-07-29T18:04:09.091Z,6.80
2017-07-29T18:06:38.779Z,3.10
2017-07-29T18:09:08.563Z,4.07
2017-07-29T18:11:41.047Z,4.50
2017-07-29T18:14:09.078Z,4.27
2017-07-29T18:16:37.087Z,2.57
2017-07-29T18:19:05.099Z,5.97
2017-07-29T18:21:35.253Z,3.90
2017-07-29T18:24:03.259Z,4.13
2017-07-29T18:26:31.275Z,3.10
2017-07-29T18:28:59.631Z,7.07
2017-07-29T18:31:27.650Z,5.90
2017-07-29T18:33:55.663Z,4.83
2017-07-29T18:36:25.488Z,3.27
2017-07-29T18:38:54.533Z,4.33
2017-07-29T18:41:22.530Z,6.47
2017-07-29T18:43:50.591Z,4.07
2017-07-29T18:46:19.375Z,8.00
2017-07-29T18:48:48.147Z,5.80
2017-07-29T18:51:18.415Z,4.07
2017-07-29T18:53:46.431Z,4.50
2017-07-29T18:56:14.452Z,7.00
2017-07-29T18:58:43.387Z,4.27
2017-07-29T19:01:11.395Z,5.17
2017-07-29T19:03:39.432Z,4.73
2017-07-29T19:06:07.455Z,5.87
2017-07-29T19:08:35.959Z,4.70
2017-07-29T19:11:04.890Z,7.87
2017-07-29T19:13:34.010Z,8.80
2017-07-29T19:16:02.946Z,6.40
2017-07-29T19:18:30.979Z,6.07
2017-07-29T19:20:59.054Z,5.20
2017-07-29T19:23:29.015Z,4.90
2017-07-29T19:25:58.106Z,6.17
2017-07-29T19:28:27.102Z,6.17
2017-07-29T19:30:56.078Z,4.80
2017-07-29T19:33:24.102Z,4.30
2017-07-29T19:35:52.134Z,4.90
2017-07-29T19:38:20.147Z,7.70
2017-07-29T19:40:48.331Z,4.47
2017-07-29T19:43:16.314Z,9.73
2017-07-29T19:45:44.328Z,7.57
2017-07-29T19:48:14.126Z,5.80
2017-07-29T19:50:45.239Z,6.40
2017-07-29T19:53:14.262Z,6.10
2017-07-29T19:55:42.274Z,5.00
2017-07-29T19:58:11.238Z,9.60
2017-07-29T20:00:43.894Z,6.70
2017-07-29T20:03:11.910Z,7.03
2017-07-29T20:05:39.950Z,6.13
2017-07-29T20:08:09.746Z,6.67
2017-07-29T20:10:38.735Z,5.90
2017-07-29T20:13:06.758Z,23.77
2017-07-29T20:15:35.747Z,17.13
2017-07-29T20:18:03.779Z,8.30
2017-07-29T20:20:31.790Z,13.07
2017-07-29T20:23:00.798Z,12.50
2017-07-29T20:25:28.818Z,6.47
2017-07-29T20:27:57.755Z,6.40
2017-07-29T20:30:25.794Z,13.13
2017-07-29T20:32:54.582Z,10.37
2017-07-29T20:35:23.369Z,11.23
2017-07-29T20:37:52.182Z,12.57
2017-07-29T20:40:20.190Z,7.57
2017-07-29T20:42:49.202Z,9.10
2017-07-29T20:45:17.218Z,10.20
2017-07-29T20:47:45.622Z,6.93
2017-07-29T20:50:15.353Z,8.90
2017-07-29T20:52:43.858Z,8.10
2017-07-29T20:55:12.253Z,8.90
2017-07-29T20:57:40.278Z,7.83
2017-07-29T21:00:09.291Z,8.67
2017-07-29T21:02:37.304Z,8.10
2017-07-29T21:05:05.313Z,6.87
2017-07-29T21:07:33.333Z,6.60
2017-07-29T21:10:01.354Z,12.83
2017-07-29T21:12:29.373Z,7.30
2017-07-29T21:14:57.414Z,16.10
2017-07-29T21:17:25.430Z,9.33
2017-07-29T21:19:54.533Z,9.57
2017-07-29T21:22:22.546Z,9.23
2017-07-29T21:24:51.325Z,11.13
2017-07-29T21:27:21.117Z,8.23
2017-07-29T21:29:50.137Z,7.57
2017-07-29T21:32:18.162Z,6.83
2017-07-29T21:34:46.194Z,12.50
2017-07-29T21:37:14.233Z,9.03
2017-07-29T21:39:43.222Z,19.77
2017-07-29T21:42:11.229Z,11.10
2017-07-29T21:44:39.257Z,11.10
2017-07-29T21:47:07.282Z,8.47
2017-07-29T21:49:36.214Z,7.70
2017-07-29T21:52:05.224Z,12.30
2017-07-29T21:54:33.257Z,6.27
2017-07-29T21:57:01.265Z,6.13
2017-07-29T21:59:29.290Z,6.63
2017-07-29T22:01:57.305Z,7.67
2017-07-29T22:04:26.985Z,6.30
2017-07-29T22:06:55.893Z,7.80
2017-07-29T22:09:23.917Z,6.30
2017-07-29T22:11:51.937Z,5.97
2017-07-29T22:14:19.968Z,6.20
2017-07-29T22:16:49.006Z,11.97
2017-07-29T22:19:17.025Z,10.80
2017-07-29T22:21:45.077Z,15.70
2017-07-29T22:24:13.109Z,7.60
2017-07-29T22:26:42.066Z,5.87
2017-07-29T22:29:10.113Z,6.60
2017-07-29T22:31:39.053Z,9.60
2017-07-29T22:34:08.058Z,15.47
2017-07-29T22:36:36.097Z,22.87
2017-07-29T22:39:04.125Z,9.33
2017-07-29T22:41:32.148Z,6.30
2017-07-29T22:44:00.179Z,7.40
2017-07-29T22:46:28.207Z,11.33
2017-07-29T22:48:56.224Z,8.77
2017-07-29T22:51:24.280Z,8.00
2017-07-29T22:53:52.300Z,8.17
2017-07-29T22:56:22.332Z,6.53
2017-07-29T22:58:50.368Z,15.70
2017-07-29T23:01:18.396Z,12.97
2017-07-29T23:03:47.172Z,6.80
2017-07-29T23:06:15.200Z,8.57
2017-07-29T23:08:43.220Z,8.93
2017-07-29T23:11:12.008Z,7.47
2017-07-29T23:13:40.816Z,6.00
2017-07-29T23:16:08.837Z,6.23
2017-07-29T23:18:37.819Z,8.00
2017-07-29T23:21:05.852Z,6.00
2017-07-29T23:23:35.824Z,6.10
2017-07-29T23:26:04.808Z,6.63
2017-07-29T23:28:32.856Z,7.40
2017-07-29T23:31:00.880Z,8.43
2017-07-29T23:33:29.836Z,8.17
2017-07-29T23:35:59.396Z,7.80
2017-07-29T23:38:28.346Z,8.87
2017-07-29T23:40:58.343Z,8.33
2017-07-29T23:43:26.380Z,7.10
2017-07-29T23:45:54.392Z,9.27
2017-07-29T23:48:23.383Z,9.17
2017-07-29T23:50:51.419Z,6.80
2017-07-29T23:53:19.432Z,7.93
2017-07-29T23:55:47.452Z,6.90
2017-07-29T23:58:15.508Z,5.97
